sensor_id;sensor_type;location;lat;lon;timestamp;P1;durP1;ratioP1;P2;durP2;ratioP2
3274;SDS011;1649;53.672;10.064;2023-05-10T00:01:02;9.83;;;6.03;;
3274;SDS011;1649;53.672;10.064;2023-05-10T00:03:27;12.23;;;5.90;;
3274;SDS011;1649;53.672;10.064;2023-05-10T00:05:53;9.53;;;6.13;;
3274;SDS011;1649;53.672;10.064;2023-05-10T00:08:18;10.20;;;5.90;;
3274;SDS011;1649;53.672;10.064;2023-05-10T00:10:44;8.00;;;5.37;;
3274;SDS011;1649;53.672;10.064;2023-05-10T00:13:09;8.93;;;6.20;;
3274;SDS011;1649;53.672;10.064;2023-05-10T00:15:35;10.00;;;6.30;;
3274;SDS011;1649;53.672;10.064;2023-05-10T00:18:00;8.70;;;5.83;;
3274;SDS011;1649;53.672;10.064;2023-05-10T00:20:26;8.10;;;5.60;;
3274;SDS011;1649;53.672;10.064;2023-05-10T00:22:51;8.40;;;5.37;;
3274;SDS011;1649;53.672;10.064;2023-05-10T00:25:17;8.63;;;6.03;;
3274;SDS011;1649;53.672;10.064;2023-05-10T00:27:43;10.30;;;5.53;;
3274;SDS011;1649;53.672;10.064;2023-05-10T00:30:08;10.67;;;6.23;;
3274;SDS011;1649;53.672;10.064;2023-05-10T00:32:34;8.60;;;6.00;;
3274;SDS011;1649;53.672;10.064;2023-05-10T00:34:59;8.37;;;5.43;;
3274;SDS011;1649;53.672;10.064;2023-05-10T00:37:25;10.57;;;6.47;;
3274;SDS011;1649;53.672;10.064;2023-05-10T00:39:50;8.30;;;5.60;;
3274;SDS011;1649;53.672;10.064;2023-05-10T00:42:16;9.57;;;6.53;;
3274;SDS011;1649;53.672;10.064;2023-05-10T00:44:41;9.17;;;6.30;;
3274;SDS011;1649;53.672;10.064;2023-05-10T00:47:07;8.63;;;5.70;;
3274;SDS011;1649;53.672;10.064;2023-05-10T00:49:33;7.77;;;5.40;;
3274;SDS011;1649;53.672;10.064;2023-05-10T00:52:00;8.43;;;5.73;;
3274;SDS011;1649;53.672;10.064;2023-05-10T00:54:26;12.03;;;6.70;;
3274;SDS011;1649;53.672;10.064;2023-05-10T00:56:52;8.43;;;6.03;;
3274;SDS011;1649;53.672;10.064;2023-05-10T00:59:18;9.10;;;5.37;;
3274;SDS011;1649;53.672;10.064;2023-05-10T01:01:44;11.50;;;5.70;;
3274;SDS011;1649;53.672;10.064;2023-05-10T01:04:11;9.00;;;5.47;;
3274;SDS011;1649;53.672;10.064;2023-05-10T01:06:38;9.50;;;6.07;;
3274;SDS011;1649;53.672;10.064;2023-05-10T01:09:04;9.80;;;5.80;;
3274;SDS011;1649;53.672;10.064;2023-05-10T01:11:31;9.83;;;6.17;;
3274;SDS011;1649;53.672;10.064;2023-05-10T01:13:58;10.57;;;5.70;;
3274;SDS011;1649;53.672;10.064;2023-05-10T01:16:24;10.70;;;6.23;;
3274;SDS011;1649;53.672;10.064;2023-05-10T01:18:51;9.10;;;5.83;;
3274;SDS011;1649;53.672;10.064;2023-05-10T01:21:20;9.10;;;5.57;;
3274;SDS011;1649;53.672;10.064;2023-05-10T01:24:23;10.77;;;5.90;;
3274;SDS011;1649;53.672;10.064;2023-05-10T01:30:35;15.10;;;6.77;;
3274;SDS011;1649;53.672;10.064;2023-05-10T01:33:27;8.83;;;6.23;;
3274;SDS011;1649;53.672;10.064;2023-05-10T01:36:16;7.93;;;5.70;;
3274;SDS011;1649;53.672;10.064;2023-05-10T01:38:58;9.50;;;6.23;;
3274;SDS011;1649;53.672;10.064;2023-05-10T01:41:52;10.83;;;6.70;;
3274;SDS011;1649;53.672;10.064;2023-05-10T01:44:40;9.50;;;6.00;;
3274;SDS011;1649;53.672;10.064;2023-05-10T01:47:15;11.30;;;6.63;;
3274;SDS011;1649;53.672;10.064;2023-05-10T01:49:53;9.50;;;6.07;;
3274;SDS011;1649;53.672;10.064;2023-05-10T01:52:30;10.90;;;5.60;;
3274;SDS011;1649;53.672;10.064;2023-05-10T01:55:02;9.03;;;6.53;;
3274;SDS011;1649;53.672;10.064;2023-05-10T01:57:32;12.43;;;6.13;;
3274;SDS011;1649;53.672;10.064;2023-05-10T02:00:00;10.33;;;6.70;;
3274;SDS011;1649;53.672;10.064;2023-05-10T02:02:28;9.70;;;6.07;;
3274;SDS011;1649;53.672;10.064;2023-05-10T02:04:55;9.37;;;6.00;;
3274;SDS011;1649;53.672;10.064;2023-05-10T02:07:23;8.70;;;6.40;;
3274;SDS011;1649;53.672;10.064;2023-05-10T02:09:49;9.60;;;5.90;;
3274;SDS011;1649;53.672;10.064;2023-05-10T02:12:15;8.03;;;6.10;;
3274;SDS011;1649;53.672;10.064;2023-05-10T02:14:42;13.97;;;7.13;;
3274;SDS011;1649;53.672;10.064;2023-05-10T02:17:08;10.30;;;6.23;;
3274;SDS011;1649;53.672;10.064;2023-05-10T02:19:34;10.70;;;6.60;;
3274;SDS011;1649;53.672;10.064;2023-05-10T02:22:02;8.33;;;5.97;;
3274;SDS011;1649;53.672;10.064;2023-05-10T02:24:28;12.60;;;6.93;;
3274;SDS011;1649;53.672;10.064;2023-05-10T02:26:55;13.00;;;6.63;;
3274;SDS011;1649;53.672;10.064;2023-05-10T02:29:22;10.00;;;6.77;;
3274;SDS011;1649;53.672;10.064;2023-05-10T02:31:49;10.57;;;6.20;;
3274;SDS011;1649;53.672;10.064;2023-05-10T02:34:17;11.87;;;6.50;;
3274;SDS011;1649;53.672;10.064;2023-05-10T02:36:44;8.90;;;6.40;;
3274;SDS011;1649;53.672;10.064;2023-05-10T02:39:10;10.20;;;5.97;;
3274;SDS011;1649;53.672;10.064;2023-05-10T02:41:39;9.20;;;6.47;;
3274;SDS011;1649;53.672;10.064;2023-05-10T02:44:06;9.47;;;5.90;;
3274;SDS011;1649;53.672;10.064;2023-05-10T02:46:33;9.53;;;6.00;;
3274;SDS011;1649;53.672;10.064;2023-05-10T02:48:58;8.87;;;6.53;;
3274;SDS011;1649;53.672;10.064;2023-05-10T02:51:25;9.80;;;6.43;;
3274;SDS011;1649;53.672;10.064;2023-05-10T02:53:56;9.20;;;6.33;;
3274;SDS011;1649;53.672;10.064;2023-05-10T02:56:24;10.87;;;6.70;;
3274;SDS011;1649;53.672;10.064;2023-05-10T02:58:56;8.77;;;5.80;;
3274;SDS011;1649;53.672;10.064;2023-05-10T03:01:22;8.87;;;6.07;;
3274;SDS011;1649;53.672;10.064;2023-05-10T03:03:47;11.03;;;6.27;;
3274;SDS011;1649;53.672;10.064;2023-05-10T03:06:13;10.33;;;6.57;;
3274;SDS011;1649;53.672;10.064;2023-05-10T03:08:39;11.27;;;6.70;;
3274;SDS011;1649;53.672;10.064;2023-05-10T03:16:47;11.27;;;6.87;;
3274;SDS011;1649;53.672;10.064;2023-05-10T03:19:27;9.60;;;6.97;;
3274;SDS011;1649;53.672;10.064;2023-05-10T03:22:05;10.00;;;6.10;;
3274;SDS011;1649;53.672;10.064;2023-05-10T03:24:35;9.40;;;5.77;;
3274;SDS011;1649;53.672;10.064;2023-05-10T03:27:03;9.80;;;6.50;;
3274;SDS011;1649;53.672;10.064;2023-05-10T03:29:29;10.47;;;6.63;;
3274;SDS011;1649;53.672;10.064;2023-05-10T03:31:57;9.50;;;6.67;;
3274;SDS011;1649;53.672;10.064;2023-05-10T03:34:24;11.20;;;7.20;;
3274;SDS011;1649;53.672;10.064;2023-05-10T03:36:50;8.63;;;6.23;;
3274;SDS011;1649;53.672;10.064;2023-05-10T03:39:16;11.57;;;7.20;;
3274;SDS011;1649;53.672;10.064;2023-05-10T03:41:41;8.20;;;6.03;;
3274;SDS011;1649;53.672;10.064;2023-05-10T03:44:07;10.60;;;6.87;;
3274;SDS011;1649;53.672;10.064;2023-05-10T03:46:32;10.13;;;6.50;;
3274;SDS011;1649;53.672;10.064;2023-05-10T03:48:58;12.40;;;7.20;;
3274;SDS011;1649;53.672;10.064;2023-05-10T03:51:23;9.30;;;6.83;;
3274;SDS011;1649;53.672;10.064;2023-05-10T03:53:52;11.33;;;6.90;;
3274;SDS011;1649;53.672;10.064;2023-05-10T03:56:21;11.80;;;6.50;;
3274;SDS011;1649;53.672;10.064;2023-05-10T03:58:47;12.33;;;6.70;;
3274;SDS011;1649;53.672;10.064;2023-05-10T04:01:12;10.63;;;6.63;;
3274;SDS011;1649;53.672;10.064;2023-05-10T04:03:38;9.87;;;6.63;;
3274;SDS011;1649;53.672;10.064;2023-05-10T04:06:03;10.03;;;6.40;;
3274;SDS011;1649;53.672;10.064;2023-05-10T04:08:29;10.30;;;6.27;;
3274;SDS011;1649;53.672;10.064;2023-05-10T04:11:04;11.70;;;6.97;;
3274;SDS011;1649;53.672;10.064;2023-05-10T04:13:33;11.10;;;6.27;;
3274;SDS011;1649;53.672;10.064;2023-05-10T04:15:59;11.13;;;6.73;;
3274;SDS011;1649;53.672;10.064;2023-05-10T04:18:24;11.80;;;7.03;;
3274;SDS011;1649;53.672;10.064;2023-05-10T04:20:50;12.47;;;7.20;;
3274;SDS011;1649;53.672;10.064;2023-05-10T04:23:16;9.50;;;6.77;;
3274;SDS011;1649;53.672;10.064;2023-05-10T04:25:41;9.80;;;6.77;;
3274;SDS011;1649;53.672;10.064;2023-05-10T04:28:07;8.53;;;6.00;;
3274;SDS011;1649;53.672;10.064;2023-05-10T04:30:33;10.03;;;6.47;;
3274;SDS011;1649;53.672;10.064;2023-05-10T04:32:58;11.00;;;6.93;;
3274;SDS011;1649;53.672;10.064;2023-05-10T04:35:24;11.00;;;6.53;;
3274;SDS011;1649;53.672;10.064;2023-05-10T04:37:49;9.03;;;6.50;;
3274;SDS011;1649;53.672;10.064;2023-05-10T04:40:15;9.07;;;6.50;;
3274;SDS011;1649;53.672;10.064;2023-05-10T04:42:40;10.73;;;6.73;;
3274;SDS011;1649;53.672;10.064;2023-05-10T04:45:06;10.60;;;7.43;;
3274;SDS011;1649;53.672;10.064;2023-05-10T04:47:32;10.67;;;6.40;;
3274;SDS011;1649;53.672;10.064;2023-05-10T04:49:58;9.60;;;6.27;;
3274;SDS011;1649;53.672;10.064;2023-05-10T04:52:23;10.03;;;6.70;;
3274;SDS011;1649;53.672;10.064;2023-05-10T04:54:49;10.83;;;6.50;;
3274;SDS011;1649;53.672;10.064;2023-05-10T04:57:14;11.47;;;6.80;;
3274;SDS011;1649;53.672;10.064;2023-05-10T04:59:40;12.03;;;6.80;;
3274;SDS011;1649;53.672;10.064;2023-05-10T05:02:05;12.13;;;6.90;;
3274;SDS011;1649;53.672;10.064;2023-05-10T05:04:31;12.43;;;7.60;;
3274;SDS011;1649;53.672;10.064;2023-05-10T05:06:57;11.77;;;6.93;;
3274;SDS011;1649;53.672;10.064;2023-05-10T05:09:22;10.30;;;6.70;;
3274;SDS011;1649;53.672;10.064;2023-05-10T05:11:47;10.33;;;7.03;;
3274;SDS011;1649;53.672;10.064;2023-05-10T05:14:13;13.67;;;6.67;;
3274;SDS011;1649;53.672;10.064;2023-05-10T05:16:39;10.20;;;6.20;;
3274;SDS011;1649;53.672;10.064;2023-05-10T05:19:04;11.20;;;6.70;;
3274;SDS011;1649;53.672;10.064;2023-05-10T05:21:30;10.23;;;6.20;;
3274;SDS011;1649;53.672;10.064;2023-05-10T05:23:57;10.80;;;6.70;;
3274;SDS011;1649;53.672;10.064;2023-05-10T05:26:22;10.30;;;6.77;;
3274;SDS011;1649;53.672;10.064;2023-05-10T05:28:48;12.93;;;6.77;;
3274;SDS011;1649;53.672;10.064;2023-05-10T05:31:16;8.87;;;6.60;;
3274;SDS011;1649;53.672;10.064;2023-05-10T05:33:42;10.20;;;6.63;;
3274;SDS011;1649;53.672;10.064;2023-05-10T05:36:08;10.20;;;6.90;;
3274;SDS011;1649;53.672;10.064;2023-05-10T05:38:33;10.00;;;6.60;;
3274;SDS011;1649;53.672;10.064;2023-05-10T05:40:59;9.23;;;6.50;;
3274;SDS011;1649;53.672;10.064;2023-05-10T05:43:25;13.13;;;6.63;;
3274;SDS011;1649;53.672;10.064;2023-05-10T05:45:53;12.20;;;7.20;;
3274;SDS011;1649;53.672;10.064;2023-05-10T05:48:19;10.37;;;6.17;;
3274;SDS011;1649;53.672;10.064;2023-05-10T05:50:45;13.20;;;6.47;;
3274;SDS011;1649;53.672;10.064;2023-05-10T05:53:10;10.87;;;6.80;;
3274;SDS011;1649;53.672;10.064;2023-05-10T05:55:36;10.57;;;6.97;;
3274;SDS011;1649;53.672;10.064;2023-05-10T05:58:02;12.23;;;7.00;;
3274;SDS011;1649;53.672;10.064;2023-05-10T06:00:27;13.93;;;6.90;;
3274;SDS011;1649;53.672;10.064;2023-05-10T06:02:53;9.60;;;6.27;;
3274;SDS011;1649;53.672;10.064;2023-05-10T06:05:18;10.90;;;7.63;;
3274;SDS011;1649;53.672;10.064;2023-05-10T06:07:45;9.30;;;5.97;;
3274;SDS011;1649;53.672;10.064;2023-05-10T06:10:10;10.30;;;6.47;;
3274;SDS011;1649;53.672;10.064;2023-05-10T06:12:36;9.90;;;6.40;;
3274;SDS011;1649;53.672;10.064;2023-05-10T06:15:02;9.37;;;6.57;;
3274;SDS011;1649;53.672;10.064;2023-05-10T06:17:28;9.90;;;6.67;;
3274;SDS011;1649;53.672;10.064;2023-05-10T06:19:54;11.70;;;6.87;;
3274;SDS011;1649;53.672;10.064;2023-05-10T06:22:19;13.20;;;6.73;;
3274;SDS011;1649;53.672;10.064;2023-05-10T06:24:47;9.87;;;6.70;;
3274;SDS011;1649;53.672;10.064;2023-05-10T06:27:13;10.00;;;6.50;;
3274;SDS011;1649;53.672;10.064;2023-05-10T06:29:38;11.47;;;6.63;;
3274;SDS011;1649;53.672;10.064;2023-05-10T06:32:04;9.10;;;7.00;;
3274;SDS011;1649;53.672;10.064;2023-05-10T06:34:30;8.40;;;6.30;;
3274;SDS011;1649;53.672;10.064;2023-05-10T06:36:55;8.60;;;6.83;;
3274;SDS011;1649;53.672;10.064;2023-05-10T06:39:20;9.40;;;6.27;;
3274;SDS011;1649;53.672;10.064;2023-05-10T06:41:46;12.43;;;7.17;;
3274;SDS011;1649;53.672;10.064;2023-05-10T06:44:11;10.00;;;7.00;;
3274;SDS011;1649;53.672;10.064;2023-05-10T06:46:37;10.70;;;6.53;;
3274;SDS011;1649;53.672;10.064;2023-05-10T06:49:03;9.67;;;5.57;;
3274;SDS011;1649;53.672;10.064;2023-05-10T06:51:29;8.20;;;6.13;;
3274;SDS011;1649;53.672;10.064;2023-05-10T06:53:54;9.30;;;6.50;;
3274;SDS011;1649;53.672;10.064;2023-05-10T06:56:20;9.70;;;6.60;;
3274;SDS011;1649;53.672;10.064;2023-05-10T06:58:46;10.80;;;6.10;;
3274;SDS011;1649;53.672;10.064;2023-05-10T07:01:12;9.77;;;6.90;;
3274;SDS011;1649;53.672;10.064;2023-05-10T07:03:38;9.40;;;6.10;;
3274;SDS011;1649;53.672;10.064;2023-05-10T07:06:03;11.27;;;7.20;;
3274;SDS011;1649;53.672;10.064;2023-05-10T07:08:30;15.03;;;6.30;;
3274;SDS011;1649;53.672;10.064;2023-05-10T07:10:59;11.00;;;6.63;;
3274;SDS011;1649;53.672;10.064;2023-05-10T07:13:26;13.07;;;6.80;;
3274;SDS011;1649;53.672;10.064;2023-05-10T07:15:51;9.93;;;6.90;;
3274;SDS011;1649;53.672;10.064;2023-05-10T07:18:17;9.17;;;6.67;;
3274;SDS011;1649;53.672;10.064;2023-05-10T07:20:42;13.13;;;6.37;;
3274;SDS011;1649;53.672;10.064;2023-05-10T07:23:08;10.70;;;6.90;;
3274;SDS011;1649;53.672;10.064;2023-05-10T07:25:33;11.50;;;7.70;;
3274;SDS011;1649;53.672;10.064;2023-05-10T07:27:59;9.00;;;6.27;;
3274;SDS011;1649;53.672;10.064;2023-05-10T07:30:24;8.93;;;6.90;;
3274;SDS011;1649;53.672;10.064;2023-05-10T07:32:50;9.30;;;6.70;;
3274;SDS011;1649;53.672;10.064;2023-05-10T07:35:15;12.90;;;8.13;;
3274;SDS011;1649;53.672;10.064;2023-05-10T07:37:41;10.23;;;6.70;;
3274;SDS011;1649;53.672;10.064;2023-05-10T07:40:06;10.20;;;7.07;;
3274;SDS011;1649;53.672;10.064;2023-05-10T07:42:32;10.47;;;6.80;;
3274;SDS011;1649;53.672;10.064;2023-05-10T07:44:58;13.33;;;6.37;;
3274;SDS011;1649;53.672;10.064;2023-05-10T07:47:23;12.60;;;7.50;;
3274;SDS011;1649;53.672;10.064;2023-05-10T07:49:49;11.83;;;6.40;;
3274;SDS011;1649;53.672;10.064;2023-05-10T07:52:14;9.20;;;6.83;;
3274;SDS011;1649;53.672;10.064;2023-05-10T07:54:40;10.03;;;6.30;;
3274;SDS011;1649;53.672;10.064;2023-05-10T07:57:05;9.93;;;6.83;;
3274;SDS011;1649;53.672;10.064;2023-05-10T07:59:31;12.23;;;6.77;;
3274;SDS011;1649;53.672;10.064;2023-05-10T08:01:57;9.80;;;6.17;;
3274;SDS011;1649;53.672;10.064;2023-05-10T08:04:22;9.87;;;6.97;;
3274;SDS011;1649;53.672;10.064;2023-05-10T08:06:48;11.30;;;6.60;;
3274;SDS011;1649;53.672;10.064;2023-05-10T08:09:14;10.20;;;7.00;;
3274;SDS011;1649;53.672;10.064;2023-05-10T08:11:41;10.17;;;6.80;;
3274;SDS011;1649;53.672;10.064;2023-05-10T08:14:06;10.17;;;7.00;;
3274;SDS011;1649;53.672;10.064;2023-05-10T08:16:32;9.57;;;6.33;;
3274;SDS011;1649;53.672;10.064;2023-05-10T08:18:57;13.20;;;7.03;;
3274;SDS011;1649;53.672;10.064;2023-05-10T08:21:22;9.17;;;7.30;;
3274;SDS011;1649;53.672;10.064;2023-05-10T08:23:48;9.33;;;6.90;;
3274;SDS011;1649;53.672;10.064;2023-05-10T08:26:14;10.40;;;6.90;;
3274;SDS011;1649;53.672;10.064;2023-05-10T08:28:40;11.73;;;6.27;;
3274;SDS011;1649;53.672;10.064;2023-05-10T08:31:05;9.30;;;6.47;;
3274;SDS011;1649;53.672;10.064;2023-05-10T08:33:31;10.10;;;6.83;;
3274;SDS011;1649;53.672;10.064;2023-05-10T08:35:56;9.00;;;6.40;;
3274;SDS011;1649;53.672;10.064;2023-05-10T08:38:22;9.70;;;7.03;;
3274;SDS011;1649;53.672;10.064;2023-05-10T08:40:47;10.30;;;6.33;;
3274;SDS011;1649;53.672;10.064;2023-05-10T08:43:15;8.73;;;6.40;;
3274;SDS011;1649;53.672;10.064;2023-05-10T08:45:42;8.47;;;5.97;;
3274;SDS011;1649;53.672;10.064;2023-05-10T08:48:11;9.50;;;6.77;;
3274;SDS011;1649;53.672;10.064;2023-05-10T08:50:37;9.77;;;6.10;;
3274;SDS011;1649;53.672;10.064;2023-05-10T08:53:05;13.13;;;7.00;;
3274;SDS011;1649;53.672;10.064;2023-05-10T08:55:34;11.30;;;6.87;;
3274;SDS011;1649;53.672;10.064;2023-05-10T08:58:03;9.70;;;6.50;;
3274;SDS011;1649;53.672;10.064;2023-05-10T09:00:29;12.87;;;7.63;;
3274;SDS011;1649;53.672;10.064;2023-05-10T09:02:55;11.20;;;7.07;;
3274;SDS011;1649;53.672;10.064;2023-05-10T09:05:22;11.83;;;6.90;;
3274;SDS011;1649;53.672;10.064;2023-05-10T09:07:48;9.57;;;7.27;;
3274;SDS011;1649;53.672;10.064;2023-05-10T09:10:13;8.03;;;6.13;;
3274;SDS011;1649;53.672;10.064;2023-05-10T09:12:40;13.53;;;6.40;;
3274;SDS011;1649;53.672;10.064;2023-05-10T09:15:06;9.40;;;6.10;;
3274;SDS011;1649;53.672;10.064;2023-05-10T09:17:34;10.63;;;7.07;;
3274;SDS011;1649;53.672;10.064;2023-05-10T09:20:00;10.10;;;6.40;;
3274;SDS011;1649;53.672;10.064;2023-05-10T09:22:27;11.97;;;6.90;;
3274;SDS011;1649;53.672;10.064;2023-05-10T09:25:05;11.37;;;6.80;;
3274;SDS011;1649;53.672;10.064;2023-05-10T09:27:31;9.97;;;6.50;;
3274;SDS011;1649;53.672;10.064;2023-05-10T09:29:57;10.27;;;6.73;;
3274;SDS011;1649;53.672;10.064;2023-05-10T09:32:35;10.70;;;7.23;;
3274;SDS011;1649;53.672;10.064;2023-05-10T09:35:08;10.97;;;7.23;;
3274;SDS011;1649;53.672;10.064;2023-05-10T09:37:34;13.40;;;6.80;;
3274;SDS011;1649;53.672;10.064;2023-05-10T09:40:00;10.10;;;7.60;;
3274;SDS011;1649;53.672;10.064;2023-05-10T09:42:29;10.97;;;7.53;;
3274;SDS011;1649;53.672;10.064;2023-05-10T09:44:59;9.10;;;6.53;;
3274;SDS011;1649;53.672;10.064;2023-05-10T09:47:26;10.87;;;7.00;;
3274;SDS011;1649;53.672;10.064;2023-05-10T09:49:52;12.73;;;7.77;;
3274;SDS011;1649;53.672;10.064;2023-05-10T09:52:20;10.20;;;7.50;;
3274;SDS011;1649;53.672;10.064;2023-05-10T09:54:52;13.73;;;7.63;;
3274;SDS011;1649;53.672;10.064;2023-05-10T09:57:20;12.03;;;8.20;;
3274;SDS011;1649;53.672;10.064;2023-05-10T09:59:46;13.50;;;8.03;;
3274;SDS011;1649;53.672;10.064;2023-05-10T10:02:12;10.63;;;7.90;;
3274;SDS011;1649;53.672;10.064;2023-05-10T10:04:39;9.10;;;7.10;;
3274;SDS011;1649;53.672;10.064;2023-05-10T10:07:05;10.20;;;7.63;;
3274;SDS011;1649;53.672;10.064;2023-05-10T10:09:31;12.17;;;7.57;;
3274;SDS011;1649;53.672;10.064;2023-05-10T10:12:01;13.00;;;7.37;;
3274;SDS011;1649;53.672;10.064;2023-05-10T10:14:28;12.13;;;8.77;;
3274;SDS011;1649;53.672;10.064;2023-05-10T10:16:54;15.00;;;8.30;;
3274;SDS011;1649;53.672;10.064;2023-05-10T10:19:20;12.57;;;8.60;;
3274;SDS011;1649;53.672;10.064;2023-05-10T10:21:50;11.30;;;8.07;;
3274;SDS011;1649;53.672;10.064;2023-05-10T10:24:15;12.90;;;8.60;;
3274;SDS011;1649;53.672;10.064;2023-05-10T10:26:41;15.57;;;8.73;;
3274;SDS011;1649;53.672;10.064;2023-05-10T10:29:31;13.03;;;8.53;;
3274;SDS011;1649;53.672;10.064;2023-05-10T10:32:12;17.00;;;9.90;;
3274;SDS011;1649;53.672;10.064;2023-05-10T10:34:59;13.70;;;10.30;;
3274;SDS011;1649;53.672;10.064;2023-05-10T10:37:41;13.90;;;10.93;;
3274;SDS011;1649;53.672;10.064;2023-05-10T10:40:30;15.70;;;11.47;;
3274;SDS011;1649;53.672;10.064;2023-05-10T10:42:57;16.80;;;11.90;;
3274;SDS011;1649;53.672;10.064;2023-05-10T10:45:43;17.13;;;11.20;;
3274;SDS011;1649;53.672;10.064;2023-05-10T10:48:24;18.80;;;12.20;;
3274;SDS011;1649;53.672;10.064;2023-05-10T10:50:57;16.93;;;12.53;;
3274;SDS011;1649;53.672;10.064;2023-05-10T10:53:25;18.73;;;12.90;;
3274;SDS011;1649;53.672;10.064;2023-05-10T10:55:55;18.43;;;13.73;;
3274;SDS011;1649;53.672;10.064;2023-05-10T10:58:33;18.67;;;14.00;;
3274;SDS011;1649;53.672;10.064;2023-05-10T11:01:09;19.07;;;13.70;;
3274;SDS011;1649;53.672;10.064;2023-05-10T11:03:40;20.20;;;13.50;;
3274;SDS011;1649;53.672;10.064;2023-05-10T11:06:06;18.40;;;14.97;;
3274;SDS011;1649;53.672;10.064;2023-05-10T11:08:33;17.37;;;14.60;;
3274;SDS011;1649;53.672;10.064;2023-05-10T11:11:06;22.07;;;15.77;;
3274;SDS011;1649;53.672;10.064;2023-05-10T11:13:42;18.23;;;13.93;;
3274;SDS011;1649;53.672;10.064;2023-05-10T11:16:13;19.40;;;15.27;;
3274;SDS011;1649;53.672;10.064;2023-05-10T11:18:58;20.43;;;14.87;;
3274;SDS011;1649;53.672;10.064;2023-05-10T11:21:32;19.13;;;14.90;;
3274;SDS011;1649;53.672;10.064;2023-05-10T11:23:59;23.03;;;15.70;;
3274;SDS011;1649;53.672;10.064;2023-05-10T11:26:30;19.43;;;15.07;;
3274;SDS011;1649;53.672;10.064;2023-05-10T11:29:00;17.80;;;15.20;;
3274;SDS011;1649;53.672;10.064;2023-05-10T11:31:26;17.90;;;14.13;;
3274;SDS011;1649;53.672;10.064;2023-05-10T11:33:56;18.37;;;14.90;;
3274;SDS011;1649;53.672;10.064;2023-05-10T11:36:23;19.40;;;15.07;;
3274;SDS011;1649;53.672;10.064;2023-05-10T11:38:51;19.27;;;13.60;;
3274;SDS011;1649;53.672;10.064;2023-05-10T11:41:17;19.80;;;14.27;;
3274;SDS011;1649;53.672;10.064;2023-05-10T11:43:45;21.30;;;16.07;;
3274;SDS011;1649;53.672;10.064;2023-05-10T11:46:13;24.80;;;15.17;;
3274;SDS011;1649;53.672;10.064;2023-05-10T11:48:39;17.90;;;14.40;;
3274;SDS011;1649;53.672;10.064;2023-05-10T11:51:09;17.80;;;13.70;;
3274;SDS011;1649;53.672;10.064;2023-05-10T11:53:35;18.43;;;14.70;;
3274;SDS011;1649;53.672;10.064;2023-05-10T11:56:08;19.10;;;15.73;;
3274;SDS011;1649;53.672;10.064;2023-05-10T11:58:35;20.03;;;15.53;;
3274;SDS011;1649;53.672;10.064;2023-05-10T12:01:02;18.17;;;14.57;;
3274;SDS011;1649;53.672;10.064;2023-05-10T12:03:29;18.13;;;13.00;;
3274;SDS011;1649;53.672;10.064;2023-05-10T12:05:55;20.13;;;15.43;;
3274;SDS011;1649;53.672;10.064;2023-05-10T12:08:22;19.47;;;15.30;;
3274;SDS011;1649;53.672;10.064;2023-05-10T12:10:49;21.50;;;15.40;;
3274;SDS011;1649;53.672;10.064;2023-05-10T12:13:15;19.10;;;14.33;;
3274;SDS011;1649;53.672;10.064;2023-05-10T12:15:41;18.40;;;13.23;;
3274;SDS011;1649;53.672;10.064;2023-05-10T12:18:09;18.40;;;14.70;;
3274;SDS011;1649;53.672;10.064;2023-05-10T12:20:35;19.57;;;14.63;;
3274;SDS011;1649;53.672;10.064;2023-05-10T12:23:01;20.40;;;16.30;;
3274;SDS011;1649;53.672;10.064;2023-05-10T12:25:35;20.23;;;16.50;;
3274;SDS011;1649;53.672;10.064;2023-05-10T12:28:08;21.43;;;18.20;;
3274;SDS011;1649;53.672;10.064;2023-05-10T12:30:34;22.73;;;18.70;;
3274;SDS011;1649;53.672;10.064;2023-05-10T12:33:02;21.67;;;17.03;;
3274;SDS011;1649;53.672;10.064;2023-05-10T12:35:32;24.37;;;17.97;;
3274;SDS011;1649;53.672;10.064;2023-05-10T12:38:23;22.10;;;18.70;;
3274;SDS011;1649;53.672;10.064;2023-05-10T12:41:04;23.60;;;18.60;;
3274;SDS011;1649;53.672;10.064;2023-05-10T12:43:32;26.10;;;18.87;;
3274;SDS011;1649;53.672;10.064;2023-05-10T12:45:58;22.93;;;19.40;;
3274;SDS011;1649;53.672;10.064;2023-05-10T12:48:23;24.07;;;18.90;;
3274;SDS011;1649;53.672;10.064;2023-05-10T12:50:49;23.33;;;19.87;;
3274;SDS011;1649;53.672;10.064;2023-05-10T12:53:15;22.97;;;18.43;;
3274;SDS011;1649;53.672;10.064;2023-05-10T12:55:41;23.67;;;18.87;;
3274;SDS011;1649;53.672;10.064;2023-05-10T12:58:07;23.50;;;18.80;;
3274;SDS011;1649;53.672;10.064;2023-05-10T13:00:33;23.03;;;19.93;;
3274;SDS011;1649;53.672;10.064;2023-05-10T13:02:58;21.93;;;18.53;;
3274;SDS011;1649;53.672;10.064;2023-05-10T13:05:24;22.67;;;19.00;;
3274;SDS011;1649;53.672;10.064;2023-05-10T13:07:50;22.47;;;17.80;;
3274;SDS011;1649;53.672;10.064;2023-05-10T13:10:15;21.33;;;18.07;;
3274;SDS011;1649;53.672;10.064;2023-05-10T13:12:41;19.37;;;16.50;;
3274;SDS011;1649;53.672;10.064;2023-05-10T13:15:06;21.60;;;15.90;;
3274;SDS011;1649;53.672;10.064;2023-05-10T13:17:32;19.37;;;15.67;;
3274;SDS011;1649;53.672;10.064;2023-05-10T13:19:58;18.60;;;15.60;;
3274;SDS011;1649;53.672;10.064;2023-05-10T13:22:23;17.80;;;14.93;;
3274;SDS011;1649;53.672;10.064;2023-05-10T13:24:49;15.50;;;12.73;;
3274;SDS011;1649;53.672;10.064;2023-05-10T13:27:14;16.67;;;13.47;;
3274;SDS011;1649;53.672;10.064;2023-05-10T13:29:40;16.70;;;13.13;;
3274;SDS011;1649;53.672;10.064;2023-05-10T13:32:06;15.40;;;12.70;;
3274;SDS011;1649;53.672;10.064;2023-05-10T13:34:31;16.20;;;12.90;;
3274;SDS011;1649;53.672;10.064;2023-05-10T13:36:57;16.80;;;14.10;;
3274;SDS011;1649;53.672;10.064;2023-05-10T13:39:22;17.93;;;13.60;;
3274;SDS011;1649;53.672;10.064;2023-05-10T13:41:48;15.93;;;12.53;;
3274;SDS011;1649;53.672;10.064;2023-05-10T13:44:14;15.83;;;13.30;;
3274;SDS011;1649;53.672;10.064;2023-05-10T13:46:40;14.90;;;10.80;;
3274;SDS011;1649;53.672;10.064;2023-05-10T13:49:08;14.80;;;10.17;;
3274;SDS011;1649;53.672;10.064;2023-05-10T13:51:34;14.53;;;10.30;;
3274;SDS011;1649;53.672;10.064;2023-05-10T13:54:00;13.50;;;9.40;;
3274;SDS011;1649;53.672;10.064;2023-05-10T13:56:28;12.70;;;9.10;;
3274;SDS011;1649;53.672;10.064;2023-05-10T13:58:55;10.47;;;8.30;;
3274;SDS011;1649;53.672;10.064;2023-05-10T14:01:22;13.83;;;9.77;;
3274;SDS011;1649;53.672;10.064;2023-05-10T14:03:48;13.43;;;10.90;;
3274;SDS011;1649;53.672;10.064;2023-05-10T14:06:13;12.63;;;10.50;;
3274;SDS011;1649;53.672;10.064;2023-05-10T14:08:39;13.30;;;9.90;;
3274;SDS011;1649;53.672;10.064;2023-05-10T14:11:05;12.63;;;9.80;;
3274;SDS011;1649;53.672;10.064;2023-05-10T14:13:30;13.30;;;9.60;;
3274;SDS011;1649;53.672;10.064;2023-05-10T14:15:56;12.73;;;10.70;;
3274;SDS011;1649;53.672;10.064;2023-05-10T14:18:21;12.20;;;9.80;;
3274;SDS011;1649;53.672;10.064;2023-05-10T14:20:47;14.00;;;10.70;;
3274;SDS011;1649;53.672;10.064;2023-05-10T14:23:12;14.00;;;10.60;;
3274;SDS011;1649;53.672;10.064;2023-05-10T14:25:41;13.40;;;10.50;;
3274;SDS011;1649;53.672;10.064;2023-05-10T14:28:06;13.77;;;10.17;;
3274;SDS011;1649;53.672;10.064;2023-05-10T14:30:32;13.90;;;11.03;;
3274;SDS011;1649;53.672;10.064;2023-05-10T14:32:59;12.83;;;10.77;;
3274;SDS011;1649;53.672;10.064;2023-05-10T14:35:26;13.77;;;10.17;;
3274;SDS011;1649;53.672;10.064;2023-05-10T14:37:52;12.70;;;10.50;;
3274;SDS011;1649;53.672;10.064;2023-05-10T14:40:17;13.07;;;9.03;;
3274;SDS011;1649;53.672;10.064;2023-05-10T14:42:43;14.43;;;9.90;;
3274;SDS011;1649;53.672;10.064;2023-05-10T14:45:09;12.63;;;9.60;;
3274;SDS011;1649;53.672;10.064;2023-05-10T14:47:35;12.13;;;10.00;;
3274;SDS011;1649;53.672;10.064;2023-05-10T14:50:01;13.53;;;10.87;;
3274;SDS011;1649;53.672;10.064;2023-05-10T14:52:26;13.53;;;10.80;;
3274;SDS011;1649;53.672;10.064;2023-05-10T14:54:52;12.50;;;10.30;;
3274;SDS011;1649;53.672;10.064;2023-05-10T14:57:18;13.20;;;10.80;;
3274;SDS011;1649;53.672;10.064;2023-05-10T14:59:44;13.90;;;10.80;;